Sugar City, Colorado
Current Conditions -  °F | °C
As of 11:53 AM on Tuesday 21 Oct 2014 (Local Time) from KLHX Reporting Station
Clear Clear  
Wind Chill: 75°   Ceiling: Unl
Heat Index: 75°   Visibility: 10mi
Dew Point: 46°   Wind: 8mph
Humidity: 36%   Direction: 170°S
Pressure: 30.02"   Gusts: NA
Location:  38.23°N, 103.66°W
Report Text: KLHX 211753Z AUTO 17007KT 10SM CLR 24/08 A3002 RMK AO2 SLP120 T02390078 10239 20056 58018
Loading
Personal Weather Stations






























Interactive Weather Map
Tropical Storm Tracking
New forecast layout! Learn more

10-Day Weather Forecast

Advertisements
Track Severe Weather on mobile